sensor_id;sensor_type;location;lat;lon;timestamp;temperature;humidity
3866;DHT22;1948;53.250;10.412;2023-02-08T00:01:29;-0.80;99.90
3866;DHT22;1948;53.250;10.412;2023-02-08T00:03:58;-0.80;99.90
3866;DHT22;1948;53.250;10.412;2023-02-08T00:06:30;-0.80;99.90
3866;DHT22;1948;53.250;10.412;2023-02-08T00:08:57;-0.80;99.90
3866;DHT22;1948;53.250;10.412;2023-02-08T00:11:24;-0.80;99.90
3866;DHT22;1948;53.250;10.412;2023-02-08T00:13:53;-0.80;99.90
3866;DHT22;1948;53.250;10.412;2023-02-08T00:16:20;-0.80;99.90
3866;DHT22;1948;53.250;10.412;2023-02-08T00:18:47;-0.80;99.90
3866;DHT22;1948;53.250;10.412;2023-02-08T00:21:16;-0.90;99.90
3866;DHT22;1948;53.250;10.412;2023-02-08T00:23:46;-0.90;99.90
3866;DHT22;1948;53.250;10.412;2023-02-08T00:26:13;-0.90;99.90
3866;DHT22;1948;53.250;10.412;2023-02-08T00:28:43;-0.90;99.90
3866;DHT22;1948;53.250;10.412;2023-02-08T00:31:10;-0.90;99.90
3866;DHT22;1948;53.250;10.412;2023-02-08T00:33:40;-0.90;99.90
3866;DHT22;1948;53.250;10.412;2023-02-08T00:36:07;-1.00;99.90
3866;DHT22;1948;53.250;10.412;2023-02-08T00:38:38;-1.00;99.90
3866;DHT22;1948;53.250;10.412;2023-02-08T00:41:07;-1.00;99.90
3866;DHT22;1948;53.250;10.412;2023-02-08T00:43:34;-1.00;99.90
3866;DHT22;1948;53.250;10.412;2023-02-08T00:46:02;-1.10;99.90
3866;DHT22;1948;53.250;10.412;2023-02-08T00:48:29;-1.10;99.90
3866;DHT22;1948;53.250;10.412;2023-02-08T00:51:08;-1.10;99.90
3866;DHT22;1948;53.250;10.412;2023-02-08T00:53:41;-1.10;99.90
3866;DHT22;1948;53.250;10.412;2023-02-08T00:56:11;-1.10;99.90
3866;DHT22;1948;53.250;10.412;2023-02-08T00:58:42;-1.10;99.90
3866;DHT22;1948;53.250;10.412;2023-02-08T01:01:09;-1.00;99.90
3866;DHT22;1948;53.250;10.412;2023-02-08T01:03:37;-1.00;99.90
3866;DHT22;1948;53.250;10.412;2023-02-08T01:06:09;-1.00;99.90
3866;DHT22;1948;53.250;10.412;2023-02-08T01:08:44;-1.00;99.90
3866;DHT22;1948;53.250;10.412;2023-02-08T01:11:13;-1.10;99.90
3866;DHT22;1948;53.250;10.412;2023-02-08T01:13:43;-1.10;99.90
3866;DHT22;1948;53.250;10.412;2023-02-08T01:16:12;-1.20;99.90
3866;DHT22;1948;53.250;10.412;2023-02-08T01:18:43;-1.20;99.90
3866;DHT22;1948;53.250;10.412;2023-02-08T01:21:19;-1.20;99.90
3866;DHT22;1948;53.250;10.412;2023-02-08T01:23:48;-1.20;99.90
3866;DHT22;1948;53.250;10.412;2023-02-08T01:26:17;-1.20;99.90
3866;DHT22;1948;53.250;10.412;2023-02-08T01:28:46;-1.30;99.90
3866;DHT22;1948;53.250;10.412;2023-02-08T01:31:23;-1.40;99.90
3866;DHT22;1948;53.250;10.412;2023-02-08T01:33:55;-1.50;99.90
3866;DHT22;1948;53.250;10.412;2023-02-08T01:36:24;-1.50;99.90
3866;DHT22;1948;53.250;10.412;2023-02-08T01:38:54;-1.50;99.90
3866;DHT22;1948;53.250;10.412;2023-02-08T01:41:26;-1.50;99.90
3866;DHT22;1948;53.250;10.412;2023-02-08T01:46:44;-1.60;99.90
3866;DHT22;1948;53.250;10.412;2023-02-08T01:49:21;-1.50;99.90
3866;DHT22;1948;53.250;10.412;2023-02-08T01:51:57;-1.50;99.90
3866;DHT22;1948;53.250;10.412;2023-02-08T01:54:32;-1.60;99.90
3866;DHT22;1948;53.250;10.412;2023-02-08T01:57:03;-1.60;99.90
3866;DHT22;1948;53.250;10.412;2023-02-08T01:59:44;-1.70;99.90
3866;DHT22;1948;53.250;10.412;2023-02-08T02:02:18;-1.70;99.90
3866;DHT22;1948;53.250;10.412;2023-02-08T02:04:48;-1.70;99.90
3866;DHT22;1948;53.250;10.412;2023-02-08T02:07:18;-1.70;99.90
3866;DHT22;1948;53.250;10.412;2023-02-08T02:09:57;-1.80;99.90
3866;DHT22;1948;53.250;10.412;2023-02-08T02:12:29;-1.90;99.90
3866;DHT22;1948;53.250;10.412;2023-02-08T02:14:59;-1.90;99.90
3866;DHT22;1948;53.250;10.412;2023-02-08T02:17:27;-1.80;99.90
3866;DHT22;1948;53.250;10.412;2023-02-08T02:20:27;-1.70;99.90
3866;DHT22;1948;53.250;10.412;2023-02-08T02:41:25;-1.70;99.90
3866;DHT22;1948;53.250;10.412;2023-02-08T02:44:34;-1.70;99.90
3866;DHT22;1948;53.250;10.412;2023-02-08T02:47:18;-1.80;99.90
3866;DHT22;1948;53.250;10.412;2023-02-08T02:49:55;-1.80;99.90
3866;DHT22;1948;53.250;10.412;2023-02-08T02:52:45;-1.90;99.90
3866;DHT22;1948;53.250;10.412;2023-02-08T02:55:22;-1.90;99.90
3866;DHT22;1948;53.250;10.412;2023-02-08T02:57:52;-1.90;99.90
3866;DHT22;1948;53.250;10.412;2023-02-08T03:00:23;-1.90;99.90
3866;DHT22;1948;53.250;10.412;2023-02-08T03:02:52;-1.90;99.90
3866;DHT22;1948;53.250;10.412;2023-02-08T03:05:24;-1.90;99.90
3866;DHT22;1948;53.250;10.412;2023-02-08T03:08:13;-2.00;99.90
3866;DHT22;1948;53.250;10.412;2023-02-08T03:25:37;-2.10;99.90
3866;DHT22;1948;53.250;10.412;2023-02-08T03:28:27;-2.10;99.90
3866;DHT22;1948;53.250;10.412;2023-02-08T03:33:42;-2.10;99.90
3866;DHT22;1948;53.250;10.412;2023-02-08T03:39:12;-2.00;99.90
3866;DHT22;1948;53.250;10.412;2023-02-08T03:41:45;-2.10;99.90
3866;DHT22;1948;53.250;10.412;2023-02-08T03:44:41;-2.00;99.90
3866;DHT22;1948;53.250;10.412;2023-02-08T03:47:26;-2.10;99.90
3866;DHT22;1948;53.250;10.412;2023-02-08T03:50:00;-2.00;99.90
3866;DHT22;1948;53.250;10.412;2023-02-08T03:52:31;-2.00;99.90
3866;DHT22;1948;53.250;10.412;2023-02-08T03:55:17;-2.00;99.90
3866;DHT22;1948;53.250;10.412;2023-02-08T04:00:54;-2.10;99.90
3866;DHT22;1948;53.250;10.412;2023-02-08T04:03:29;-2.20;99.90
3866;DHT22;1948;53.250;10.412;2023-02-08T04:06:00;-2.20;99.90
3866;DHT22;1948;53.250;10.412;2023-02-08T04:08:28;-2.20;99.90
3866;DHT22;1948;53.250;10.412;2023-02-08T04:10:55;-2.20;99.90
3866;DHT22;1948;53.250;10.412;2023-02-08T04:13:22;-2.30;99.90
3866;DHT22;1948;53.250;10.412;2023-02-08T04:15:49;-2.20;99.90
3866;DHT22;1948;53.250;10.412;2023-02-08T04:18:18;-2.20;99.90
3866;DHT22;1948;53.250;10.412;2023-02-08T04:20:48;-2.20;99.90
3866;DHT22;1948;53.250;10.412;2023-02-08T04:23:21;-2.20;99.90
3866;DHT22;1948;53.250;10.412;2023-02-08T04:25:48;-2.20;99.90
3866;DHT22;1948;53.250;10.412;2023-02-08T04:28:15;-2.20;99.90
3866;DHT22;1948;53.250;10.412;2023-02-08T04:30:43;-2.10;99.90
3866;DHT22;1948;53.250;10.412;2023-02-08T04:33:10;-2.10;99.90
3866;DHT22;1948;53.250;10.412;2023-02-08T04:35:39;-2.10;99.90
3866;DHT22;1948;53.250;10.412;2023-02-08T04:38:07;-2.10;99.90
3866;DHT22;1948;53.250;10.412;2023-02-08T04:40:34;-2.10;99.90
3866;DHT22;1948;53.250;10.412;2023-02-08T04:43:06;-2.10;99.90
3866;DHT22;1948;53.250;10.412;2023-02-08T04:45:38;-2.10;99.90
3866;DHT22;1948;53.250;10.412;2023-02-08T04:48:08;-2.20;99.90
3866;DHT22;1948;53.250;10.412;2023-02-08T04:50:38;-2.10;99.90
3866;DHT22;1948;53.250;10.412;2023-02-08T04:53:05;-2.10;99.90
3866;DHT22;1948;53.250;10.412;2023-02-08T04:55:33;-2.00;99.90
3866;DHT22;1948;53.250;10.412;2023-02-08T04:58:00;-2.00;99.90
3866;DHT22;1948;53.250;10.412;2023-02-08T05:00:27;-2.00;99.90
3866;DHT22;1948;53.250;10.412;2023-02-08T05:02:56;-2.00;99.90
3866;DHT22;1948;53.250;10.412;2023-02-08T05:05:26;-2.00;99.90
3866;DHT22;1948;53.250;10.412;2023-02-08T05:07:54;-2.00;99.90
3866;DHT22;1948;53.250;10.412;2023-02-08T05:10:21;-2.00;99.90
3866;DHT22;1948;53.250;10.412;2023-02-08T05:12:48;-2.10;99.90
3866;DHT22;1948;53.250;10.412;2023-02-08T05:15:17;-2.00;99.90
3866;DHT22;1948;53.250;10.412;2023-02-08T05:17:47;-2.10;99.90
3866;DHT22;1948;53.250;10.412;2023-02-08T05:20:17;-2.10;99.90
3866;DHT22;1948;53.250;10.412;2023-02-08T05:22:44;-2.10;99.90
3866;DHT22;1948;53.250;10.412;2023-02-08T05:25:11;-2.00;99.90
3866;DHT22;1948;53.250;10.412;2023-02-08T05:27:38;-2.10;99.90
3866;DHT22;1948;53.250;10.412;2023-02-08T05:30:06;-2.10;99.90
3866;DHT22;1948;53.250;10.412;2023-02-08T05:32:33;-2.10;99.90
3866;DHT22;1948;53.250;10.412;2023-02-08T05:35:05;-2.10;99.90
3866;DHT22;1948;53.250;10.412;2023-02-08T05:37:32;-2.10;99.90
3866;DHT22;1948;53.250;10.412;2023-02-08T05:40:02;-2.20;99.90
3866;DHT22;1948;53.250;10.412;2023-02-08T05:42:29;-2.20;99.90
3866;DHT22;1948;53.250;10.412;2023-02-08T05:44:56;-2.20;99.90
3866;DHT22;1948;53.250;10.412;2023-02-08T05:47:25;-2.20;99.90
3866;DHT22;1948;53.250;10.412;2023-02-08T05:49:52;-2.30;99.90
3866;DHT22;1948;53.250;10.412;2023-02-08T05:52:19;-2.40;99.90
3866;DHT22;1948;53.250;10.412;2023-02-08T05:54:48;-2.40;99.90
3866;DHT22;1948;53.250;10.412;2023-02-08T05:57:18;-2.50;99.90
3866;DHT22;1948;53.250;10.412;2023-02-08T05:59:45;-2.60;99.90
3866;DHT22;1948;53.250;10.412;2023-02-08T06:02:14;-2.60;99.90
3866;DHT22;1948;53.250;10.412;2023-02-08T06:04:43;-2.60;99.90
3866;DHT22;1948;53.250;10.412;2023-02-08T06:07:12;-2.50;99.90
3866;DHT22;1948;53.250;10.412;2023-02-08T06:09:40;-2.50;99.90
3866;DHT22;1948;53.250;10.412;2023-02-08T06:12:07;-2.60;99.90
3866;DHT22;1948;53.250;10.412;2023-02-08T06:14:34;-2.60;99.90
3866;DHT22;1948;53.250;10.412;2023-02-08T06:17:01;-2.60;99.90
3866;DHT22;1948;53.250;10.412;2023-02-08T06:19:28;-2.70;99.90
3866;DHT22;1948;53.250;10.412;2023-02-08T06:21:55;-2.70;99.90
3866;DHT22;1948;53.250;10.412;2023-02-08T06:24:22;-2.80;99.90
3866;DHT22;1948;53.250;10.412;2023-02-08T06:26:50;-2.80;99.90
3866;DHT22;1948;53.250;10.412;2023-02-08T06:29:17;-2.80;99.90
3866;DHT22;1948;53.250;10.412;2023-02-08T06:31:45;-2.80;99.90
3866;DHT22;1948;53.250;10.412;2023-02-08T06:34:12;-2.90;99.90
3866;DHT22;1948;53.250;10.412;2023-02-08T06:36:41;-2.90;99.90
3866;DHT22;1948;53.250;10.412;2023-02-08T06:39:10;-2.90;99.90
3866;DHT22;1948;53.250;10.412;2023-02-08T06:41:40;-2.90;99.90
3866;DHT22;1948;53.250;10.412;2023-02-08T06:44:11;-2.80;99.90
3866;DHT22;1948;53.250;10.412;2023-02-08T06:46:38;-2.80;99.90
3866;DHT22;1948;53.250;10.412;2023-02-08T06:49:05;-2.80;99.90
3866;DHT22;1948;53.250;10.412;2023-02-08T06:51:32;-2.90;99.90
3866;DHT22;1948;53.250;10.412;2023-02-08T06:54:02;-2.90;99.90
3866;DHT22;1948;53.250;10.412;2023-02-08T06:56:32;-2.80;99.90
3866;DHT22;1948;53.250;10.412;2023-02-08T06:58:59;-2.80;99.90
3866;DHT22;1948;53.250;10.412;2023-02-08T07:01:26;-2.70;99.90
3866;DHT22;1948;53.250;10.412;2023-02-08T07:03:53;-2.70;99.90
3866;DHT22;1948;53.250;10.412;2023-02-08T07:06:20;-2.60;99.90
3866;DHT22;1948;53.250;10.412;2023-02-08T07:08:47;-2.70;99.90
3866;DHT22;1948;53.250;10.412;2023-02-08T07:11:18;-2.70;99.90
3866;DHT22;1948;53.250;10.412;2023-02-08T07:13:50;-2.70;99.90
3866;DHT22;1948;53.250;10.412;2023-02-08T07:16:18;-2.80;99.90
3866;DHT22;1948;53.250;10.412;2023-02-08T07:18:48;-2.80;99.90
3866;DHT22;1948;53.250;10.412;2023-02-08T07:21:15;-2.90;99.90
3866;DHT22;1948;53.250;10.412;2023-02-08T07:23:42;-2.80;99.90
3866;DHT22;1948;53.250;10.412;2023-02-08T07:26:10;-2.80;99.90
3866;DHT22;1948;53.250;10.412;2023-02-08T07:28:38;-2.80;99.90
3866;DHT22;1948;53.250;10.412;2023-02-08T07:31:10;-2.70;99.90
3866;DHT22;1948;53.250;10.412;2023-02-08T07:33:39;-2.60;99.90
3866;DHT22;1948;53.250;10.412;2023-02-08T07:36:10;-2.00;99.90
3866;DHT22;1948;53.250;10.412;2023-02-08T07:38:37;-1.30;99.90
3866;DHT22;1948;53.250;10.412;2023-02-08T07:41:10;-0.60;99.90
3866;DHT22;1948;53.250;10.412;2023-02-08T07:43:43;0.10;99.90
3866;DHT22;1948;53.250;10.412;2023-02-08T07:46:11;0.80;99.90
3866;DHT22;1948;53.250;10.412;2023-02-08T07:48:41;1.60;99.90
3866;DHT22;1948;53.250;10.412;2023-02-08T07:51:09;2.30;99.90
3866;DHT22;1948;53.250;10.412;2023-02-08T07:53:39;2.80;99.90
3866;DHT22;1948;53.250;10.412;2023-02-08T07:56:06;3.60;99.90
3866;DHT22;1948;53.250;10.412;2023-02-08T07:58:36;4.20;99.90
3866;DHT22;1948;53.250;10.412;2023-02-08T08:01:03;4.80;99.90
3866;DHT22;1948;53.250;10.412;2023-02-08T08:03:48;5.20;99.90
3866;DHT22;1948;53.250;10.412;2023-02-08T08:06:21;5.90;99.90
3866;DHT22;1948;53.250;10.412;2023-02-08T08:08:51;6.70;99.90
3866;DHT22;1948;53.250;10.412;2023-02-08T08:11:21;7.10;99.90
3866;DHT22;1948;53.250;10.412;2023-02-08T08:13:51;7.10;99.90
3866;DHT22;1948;53.250;10.412;2023-02-08T08:16:18;7.20;99.90
3866;DHT22;1948;53.250;10.412;2023-02-08T08:18:46;7.40;99.90
3866;DHT22;1948;53.250;10.412;2023-02-08T08:21:13;7.80;99.90
3866;DHT22;1948;53.250;10.412;2023-02-08T08:23:42;7.90;99.90
3866;DHT22;1948;53.250;10.412;2023-02-08T08:26:14;8.20;99.90
3866;DHT22;1948;53.250;10.412;2023-02-08T08:28:43;8.90;99.90
3866;DHT22;1948;53.250;10.412;2023-02-08T08:31:18;9.40;99.90
3866;DHT22;1948;53.250;10.412;2023-02-08T08:33:48;10.10;99.20
3866;DHT22;1948;53.250;10.412;2023-02-08T08:36:17;10.70;97.70
3866;DHT22;1948;53.250;10.412;2023-02-08T08:38:45;11.40;95.70
3866;DHT22;1948;53.250;10.412;2023-02-08T08:41:14;11.20;93.70
3866;DHT22;1948;53.250;10.412;2023-02-08T08:43:47;11.40;93.00
3866;DHT22;1948;53.250;10.412;2023-02-08T08:46:14;12.10;92.20
3866;DHT22;1948;53.250;10.412;2023-02-08T08:48:45;12.30;90.70
3866;DHT22;1948;53.250;10.412;2023-02-08T08:51:14;12.00;90.30
3866;DHT22;1948;53.250;10.412;2023-02-08T08:53:41;11.50;89.20
3866;DHT22;1948;53.250;10.412;2023-02-08T08:56:09;11.20;88.60
3866;DHT22;1948;53.250;10.412;2023-02-08T08:58:39;11.60;88.20
3866;DHT22;1948;53.250;10.412;2023-02-08T09:01:06;11.70;87.80
3866;DHT22;1948;53.250;10.412;2023-02-08T09:03:33;12.40;87.20
3866;DHT22;1948;53.250;10.412;2023-02-08T09:06:03;12.10;83.10
3866;DHT22;1948;53.250;10.412;2023-02-08T09:08:35;12.50;85.20
3866;DHT22;1948;53.250;10.412;2023-02-08T09:11:08;12.90;83.80
3866;DHT22;1948;53.250;10.412;2023-02-08T09:13:42;13.40;81.40
3866;DHT22;1948;53.250;10.412;2023-02-08T09:16:12;12.90;79.10
3866;DHT22;1948;53.250;10.412;2023-02-08T09:18:42;12.90;80.70
3866;DHT22;1948;53.250;10.412;2023-02-08T09:21:17;13.00;80.60
3866;DHT22;1948;53.250;10.412;2023-02-08T09:23:50;13.50;78.80
3866;DHT22;1948;53.250;10.412;2023-02-08T09:26:20;13.60;79.10
3866;DHT22;1948;53.250;10.412;2023-02-08T09:28:47;13.80;76.90
3866;DHT22;1948;53.250;10.412;2023-02-08T09:31:20;14.00;76.80
3866;DHT22;1948;53.250;10.412;2023-02-08T09:33:55;14.70;75.90
3866;DHT22;1948;53.250;10.412;2023-02-08T09:36:26;15.00;74.40
3866;DHT22;1948;53.250;10.412;2023-02-08T09:39:03;15.20;73.20
3866;DHT22;1948;53.250;10.412;2023-02-08T09:44:22;15.80;71.10
3866;DHT22;1948;53.250;10.412;2023-02-08T09:50:00;16.00;67.70
3866;DHT22;1948;53.250;10.412;2023-02-08T09:52:54;16.60;66.60
3866;DHT22;1948;53.250;10.412;2023-02-08T10:01:06;18.10;63.60
3866;DHT22;1948;53.250;10.412;2023-02-08T10:07:10;18.40;60.00
3866;DHT22;1948;53.250;10.412;2023-02-08T10:09:38;19.10;59.50
3866;DHT22;1948;53.250;10.412;2023-02-08T10:15:45;19.30;57.70
3866;DHT22;1948;53.250;10.412;2023-02-08T10:26:54;19.20;54.00
3866;DHT22;1948;53.250;10.412;2023-02-08T10:32:42;20.60;52.40
3866;DHT22;1948;53.250;10.412;2023-02-08T10:35:39;20.10;49.80
3866;DHT22;1948;53.250;10.412;2023-02-08T10:38:30;19.70;50.70
3866;DHT22;1948;53.250;10.412;2023-02-08T10:41:17;19.60;50.40
3866;DHT22;1948;53.250;10.412;2023-02-08T10:44:06;20.20;50.50
3866;DHT22;1948;53.250;10.412;2023-02-08T10:46:49;20.50;49.60
3866;DHT22;1948;53.250;10.412;2023-02-08T10:51:59;19.90;48.90
3866;DHT22;1948;53.250;10.412;2023-02-08T10:54:26;19.40;49.10
3866;DHT22;1948;53.250;10.412;2023-02-08T10:59:50;18.30;48.90
3866;DHT22;1948;53.250;10.412;2023-02-08T11:02:41;15.30;49.20
3866;DHT22;1948;53.250;10.412;2023-02-08T11:05:13;14.80;51.70
3866;DHT22;1948;53.250;10.412;2023-02-08T11:07:41;15.60;52.10
3866;DHT22;1948;53.250;10.412;2023-02-08T11:10:28;16.80;52.70
3866;DHT22;1948;53.250;10.412;2023-02-08T11:15:49;19.90;51.60
3866;DHT22;1948;53.250;10.412;2023-02-08T11:18:26;20.90;50.90
3866;DHT22;1948;53.250;10.412;2023-02-08T11:26:33;19.90;50.00
3866;DHT22;1948;53.250;10.412;2023-02-08T11:29:23;19.80;50.00
3866;DHT22;1948;53.250;10.412;2023-02-08T11:32:25;20.40;50.30
3866;DHT22;1948;53.250;10.412;2023-02-08T11:35:20;20.80;49.10
3866;DHT22;1948;53.250;10.412;2023-02-08T11:37:54;21.10;49.50
3866;DHT22;1948;53.250;10.412;2023-02-08T11:40:34;22.00;49.60
3866;DHT22;1948;53.250;10.412;2023-02-08T11:43:04;22.00;48.30
3866;DHT22;1948;53.250;10.412;2023-02-08T11:45:34;21.60;48.20
3866;DHT22;1948;53.250;10.412;2023-02-08T11:48:05;21.40;48.10
3866;DHT22;1948;53.250;10.412;2023-02-08T11:50:42;20.70;48.10
3866;DHT22;1948;53.250;10.412;2023-02-08T11:53:29;20.90;48.50
3866;DHT22;1948;53.250;10.412;2023-02-08T11:58:41;21.50;48.30
3866;DHT22;1948;53.250;10.412;2023-02-08T12:01:35;22.00;48.50
3866;DHT22;1948;53.250;10.412;2023-02-08T12:04:06;21.80;48.40
3866;DHT22;1948;53.250;10.412;2023-02-08T12:23:51;20.70;49.40
3866;DHT22;1948;53.250;10.412;2023-02-08T12:35:38;21.20;49.80
3866;DHT22;1948;53.250;10.412;2023-02-08T12:42:36;22.10;48.20
3866;DHT22;1948;53.250;10.412;2023-02-08T12:47:56;22.00;48.50
3866;DHT22;1948;53.250;10.412;2023-02-08T12:50:32;22.10;48.90
3866;DHT22;1948;53.250;10.412;2023-02-08T12:53:32;22.10;49.60
3866;DHT22;1948;53.250;10.412;2023-02-08T12:56:15;21.60;49.30
3866;DHT22;1948;53.250;10.412;2023-02-08T12:58:52;20.40;49.10
3866;DHT22;1948;53.250;10.412;2023-02-08T13:01:43;20.30;50.10
3866;DHT22;1948;53.250;10.412;2023-02-08T13:04:24;20.60;50.30
3866;DHT22;1948;53.250;10.412;2023-02-08T13:06:59;19.80;50.10
3866;DHT22;1948;53.250;10.412;2023-02-08T13:09:34;19.20;50.70
3866;DHT22;1948;53.250;10.412;2023-02-08T13:12:23;19.60;50.60
3866;DHT22;1948;53.250;10.412;2023-02-08T13:15:00;19.00;50.50
3866;DHT22;1948;53.250;10.412;2023-02-08T13:20:45;18.90;51.70
3866;DHT22;1948;53.250;10.412;2023-02-08T13:25:59;18.70;50.80
3866;DHT22;1948;53.250;10.412;2023-02-08T13:28:34;18.60;51.30
3866;DHT22;1948;53.250;10.412;2023-02-08T13:31:10;18.70;51.10
3866;DHT22;1948;53.250;10.412;2023-02-08T13:33:53;18.90;51.40
3866;DHT22;1948;53.250;10.412;2023-02-08T13:36:34;18.40;50.50
3866;DHT22;1948;53.250;10.412;2023-02-08T13:39:05;17.80;51.00
3866;DHT22;1948;53.250;10.412;2023-02-08T13:41:54;17.20;51.60
3866;DHT22;1948;53.250;10.412;2023-02-08T13:44:47;16.70;51.90
3866;DHT22;1948;53.250;10.412;2023-02-08T13:47:42;17.10;52.10
3866;DHT22;1948;53.250;10.412;2023-02-08T13:50:49;17.10;51.90
3866;DHT22;1948;53.250;10.412;2023-02-08T13:56:13;16.90;52.00
3866;DHT22;1948;53.250;10.412;2023-02-08T13:59:47;16.90;52.70
3866;DHT22;1948;53.250;10.412;2023-02-08T14:03:10;16.80;52.20
3866;DHT22;1948;53.250;10.412;2023-02-08T14:08:39;16.20;53.30
3866;DHT22;1948;53.250;10.412;2023-02-08T14:11:18;15.70;53.40
3866;DHT22;1948;53.250;10.412;2023-02-08T14:14:12;15.70;53.90
3866;DHT22;1948;53.250;10.412;2023-02-08T14:17:07;15.40;53.70
3866;DHT22;1948;53.250;10.412;2023-02-08T14:19:34;15.80;54.60
3866;DHT22;1948;53.250;10.412;2023-02-08T14:24:47;15.00;54.50
3866;DHT22;1948;53.250;10.412;2023-02-08T14:27:24;14.40;55.00
3866;DHT22;1948;53.250;10.412;2023-02-08T14:32:45;14.80;56.20
3866;DHT22;1948;53.250;10.412;2023-02-08T14:37:41;15.90;56.50
3866;DHT22;1948;53.250;10.412;2023-02-08T14:43:42;15.60;56.30
3866;DHT22;1948;53.250;10.412;2023-02-08T14:45:54;15.20;56.70
3866;DHT22;1948;53.250;10.412;2023-02-08T14:48:41;15.40;56.90
3866;DHT22;1948;53.250;10.412;2023-02-08T14:53:51;15.30;56.60
3866;DHT22;1948;53.250;10.412;2023-02-08T14:56:30;14.50;56.60
3866;DHT22;1948;53.250;10.412;2023-02-08T14:59:11;14.10;57.30
3866;DHT22;1948;53.250;10.412;2023-02-08T15:02:01;14.00;58.00
3866;DHT22;1948;53.250;10.412;2023-02-08T15:04:42;13.80;58.50
3866;DHT22;1948;53.250;10.412;2023-02-08T15:07:21;13.60;58.60
3866;DHT22;1948;53.250;10.412;2023-02-08T15:10:11;13.70;59.30
3866;DHT22;1948;53.250;10.412;2023-02-08T15:12:43;13.70;59.20
3866;DHT22;1948;53.250;10.412;2023-02-08T15:15:36;13.10;59.00
3866;DHT22;1948;53.250;10.412;2023-02-08T15:18:22;12.90;60.00
3866;DHT22;1948;53.250;10.412;2023-02-08T15:21:15;12.80;60.70
3866;DHT22;1948;53.250;10.412;2023-02-08T15:24:18;12.60;61.30
3866;DHT22;1948;53.250;10.412;2023-02-08T15:26:52;12.30;61.70
3866;DHT22;1948;53.250;10.412;2023-02-08T15:29:25;12.00;62.00
3866;DHT22;1948;53.250;10.412;2023-02-08T15:32:15;11.50;62.30
3866;DHT22;1948;53.250;10.412;2023-02-08T15:34:59;10.70;64.70
3866;DHT22;1948;53.250;10.412;2023-02-08T15:37:32;10.00;65.50
3866;DHT22;1948;53.250;10.412;2023-02-08T15:40:00;9.50;68.70
3866;DHT22;1948;53.250;10.412;2023-02-08T15:42:32;9.20;70.70
3866;DHT22;1948;53.250;10.412;2023-02-08T15:44:59;8.80;72.30
3866;DHT22;1948;53.250;10.412;2023-02-08T15:47:33;8.70;74.80
3866;DHT22;1948;53.250;10.412;2023-02-08T15:50:04;8.30;76.20
3866;DHT22;1948;53.250;10.412;2023-02-08T15:52:34;8.10;78.50
3866;DHT22;1948;53.250;10.412;2023-02-08T15:55:07;7.50;81.00
3866;DHT22;1948;53.250;10.412;2023-02-08T15:57:43;6.90;85.70
3866;DHT22;1948;53.250;10.412;2023-02-08T16:00:17;6.60;90.10
3866;DHT22;1948;53.250;10.412;2023-02-08T16:03:00;6.30;91.80
3866;DHT22;1948;53.250;10.412;2023-02-08T16:05:31;6.00;93.70
3866;DHT22;1948;53.250;10.412;2023-02-08T16:08:00;5.80;95.10
3866;DHT22;1948;53.250;10.412;2023-02-08T16:10:40;5.60;97.10
3866;DHT22;1948;53.250;10.412;2023-02-08T16:13:19;5.40;98.90
3866;DHT22;1948;53.250;10.412;2023-02-08T16:15:51;5.20;99.90
3866;DHT22;1948;53.250;10.412;2023-02-08T16:18:40;5.00;99.90
3866;DHT22;1948;53.250;10.412;2023-02-08T16:21:36;4.80;99.90
3866;DHT22;1948;53.250;10.412;2023-02-08T16:26:53;4.60;99.90
3866;DHT22;1948;53.250;10.412;2023-02-08T16:29:35;4.50;99.90
3866;DHT22;1948;53.250;10.412;2023-02-08T16:32:18;4.40;99.90
3866;DHT22;1948;53.250;10.412;2023-02-08T16:35:26;4.40;99.90
3866;DHT22;1948;53.250;10.412;2023-02-08T16:37:59;4.30;99.90
3866;DHT22;1948;53.250;10.412;2023-02-08T16:46:15;4.20;99.90
3866;DHT22;1948;53.250;10.412;2023-02-08T16:48:51;4.10;99.90
3866;DHT22;1948;53.250;10.412;2023-02-08T16:51:24;3.90;99.90
3866;DHT22;1948;53.250;10.412;2023-02-08T16:54:01;3.90;99.90
3866;DHT22;1948;53.250;10.412;2023-02-08T16:56:36;3.80;99.90
3866;DHT22;1948;53.250;10.412;2023-02-08T16:59:09;3.80;99.90
3866;DHT22;1948;53.250;10.412;2023-02-08T17:01:38;3.60;99.90
3866;DHT22;1948;53.250;10.412;2023-02-08T17:04:05;3.50;99.90
3866;DHT22;1948;53.250;10.412;2023-02-08T17:06:36;3.50;99.90
3866;DHT22;1948;53.250;10.412;2023-02-08T17:09:10;3.40;99.90
3866;DHT22;1948;53.250;10.412;2023-02-08T17:11:39;3.30;99.90
3866;DHT22;1948;53.250;10.412;2023-02-08T17:14:08;3.20;99.90
3866;DHT22;1948;53.250;10.412;2023-02-08T17:16:37;3.10;99.90
3866;DHT22;1948;53.250;10.412;2023-02-08T17:19:05;3.00;99.90
3866;DHT22;1948;53.250;10.412;2023-02-08T17:21:32;2.90;99.90
3866;DHT22;1948;53.250;10.412;2023-02-08T17:23:59;2.80;99.90
3866;DHT22;1948;53.250;10.412;2023-02-08T17:26:31;2.80;99.90
3866;DHT22;1948;53.250;10.412;2023-02-08T17:29:03;2.70;99.90
3866;DHT22;1948;53.250;10.412;2023-02-08T17:31:33;2.50;99.90
3866;DHT22;1948;53.250;10.412;2023-02-08T17:34:01;2.50;99.90
3866;DHT22;1948;53.250;10.412;2023-02-08T17:36:33;2.50;99.90
3866;DHT22;1948;53.250;10.412;2023-02-08T17:39:07;2.40;99.90
3866;DHT22;1948;53.250;10.412;2023-02-08T17:41:34;2.30;99.90
3866;DHT22;1948;53.250;10.412;2023-02-08T17:44:01;2.20;99.90
3866;DHT22;1948;53.250;10.412;2023-02-08T17:46:29;2.10;99.90
3866;DHT22;1948;53.250;10.412;2023-02-08T17:48:57;2.00;99.90
3866;DHT22;1948;53.250;10.412;2023-02-08T17:51:27;2.00;99.90
3866;DHT22;1948;53.250;10.412;2023-02-08T17:53:54;1.90;99.90
3866;DHT22;1948;53.250;10.412;2023-02-08T17:56:24;1.80;99.90
3866;DHT22;1948;53.250;10.412;2023-02-08T17:58:53;1.70;99.90
3866;DHT22;1948;53.250;10.412;2023-02-08T18:01:26;1.70;99.90
3866;DHT22;1948;53.250;10.412;2023-02-08T18:03:54;1.70;99.90
3866;DHT22;1948;53.250;10.412;2023-02-08T18:06:23;1.60;99.90
3866;DHT22;1948;53.250;10.412;2023-02-08T18:08:51;1.60;99.90
3866;DHT22;1948;53.250;10.412;2023-02-08T18:11:22;1.60;99.90
3866;DHT22;1948;53.250;10.412;2023-02-08T18:13:51;1.50;99.90
3866;DHT22;1948;53.250;10.412;2023-02-08T18:16:22;1.50;99.90
3866;DHT22;1948;53.250;10.412;2023-02-08T18:18:54;1.40;99.90
3866;DHT22;1948;53.250;10.412;2023-02-08T18:21:27;1.40;99.90
3866;DHT22;1948;53.250;10.412;2023-02-08T18:24:05;1.40;99.90
3866;DHT22;1948;53.250;10.412;2023-02-08T18:26:32;1.30;99.90
3866;DHT22;1948;53.250;10.412;2023-02-08T18:29:00;1.40;99.90
3866;DHT22;1948;53.250;10.412;2023-02-08T18:31:28;1.30;99.90
3866;DHT22;1948;53.250;10.412;2023-02-08T18:33:55;1.40;99.90
3866;DHT22;1948;53.250;10.412;2023-02-08T18:36:23;1.40;99.90
3866;DHT22;1948;53.250;10.412;2023-02-08T18:38:51;1.30;99.90
3866;DHT22;1948;53.250;10.412;2023-02-08T18:41:22;1.20;99.90
3866;DHT22;1948;53.250;10.412;2023-02-08T18:43:51;1.30;99.90
3866;DHT22;1948;53.250;10.412;2023-02-08T18:46:24;1.20;99.90
3866;DHT22;1948;53.250;10.412;2023-02-08T18:48:54;1.10;99.90
3866;DHT22;1948;53.250;10.412;2023-02-08T18:51:27;1.10;99.90
3866;DHT22;1948;53.250;10.412;2023-02-08T18:54:01;1.10;99.90
3866;DHT22;1948;53.250;10.412;2023-02-08T18:56:31;1.10;99.90
3866;DHT22;1948;53.250;10.412;2023-02-08T18:59:03;1.00;99.90
3866;DHT22;1948;53.250;10.412;2023-02-08T19:01:30;1.00;99.90
3866;DHT22;1948;53.250;10.412;2023-02-08T19:03:59;1.00;99.90
3866;DHT22;1948;53.250;10.412;2023-02-08T19:06:30;1.00;99.90
3866;DHT22;1948;53.250;10.412;2023-02-08T19:08:58;1.00;99.90